Thunder radar more information blitzortung!


Radar de pluja more information rain snow radar


Visita la nostra xarxa de llocs de meteo:

Template documentation
and downloads

And another site



No particular awareness of the weather is required.    There are no Weather-warnings

Pagina Historial Weather Underground text

Diari Resum Agost 29, 2017 Unitats:  Mètric    Imperial   Tant
« Previous Dia
SegĂźent Dia »
Diari Setmana Mensual Anual Personalitzada
  Maxima: Minima: Media:
Temperatura: 33.2 °C 21.1 °C 26.8 °C
Punt de rosada: 19.2 °C 12.2 °C 16.3 °C
Humitat: 76 % 35 % 54 %
Wind Speed: 22.2 km/h 0.0 km/h 6.1 km/h
RĂ fegues de vent: 27.4 km/h - -
Vent:- - SW
Pression baro: 1015.8 hPa 1010.7 hPa -
Precipitacions: 0.0 mm    
Historical Graphs
 
 
Dades de taula per Agost 29, 2017
Temps Temperatura Punt de rosada Pression baro Vent Wind Speed RĂ fegues de vent Humitat Rainfall Rate (Hourly)
00:03 25.5 °C 18.2 °C 1012.8 hPa SW 5.6 km/h 5.6 km/h 64 % 0.0 mm
00:05 23.2 °C 18.5 °C 1011.7 hPa WSW 1.6 km/h 4.8 km/h 75 % 0.0 mm
00:15 23.2 °C 18.3 °C 1011.7 hPa WSW 3.2 km/h 3.2 km/h 74 % 0.0 mm
00:25 23.4 °C 18.3 °C 1011.7 hPa WSW 3.2 km/h 4.8 km/h 73 % 0.0 mm
00:35 23.6 °C 18.5 °C 1011.7 hPa West 3.2 km/h 6.4 km/h 73 % 0.0 mm
00:45 23.6 °C 18.3 °C 1010.7 hPa West 8.0 km/h 8.0 km/h 72 % 0.0 mm
00:55 23.7 °C 18.3 °C 1010.7 hPa West 4.8 km/h 6.4 km/h 72 % 0.0 mm
01:05 23.6 °C 18.3 °C 1010.7 hPa WSW 3.2 km/h 4.8 km/h 72 % 0.0 mm
01:25 23.5 °C 18.2 °C 1010.7 hPa WSW 1.6 km/h 4.8 km/h 72 % 0.0 mm
01:35 23.3 °C 17.9 °C 1010.7 hPa Calm   3.2 km/h 72 % 0.0 mm
01:45 23.2 °C 17.9 °C 1010.7 hPa WSW 1.6 km/h 3.2 km/h 72 % 0.0 mm
01:55 23.1 °C 17.8 °C 1010.7 hPa Calm   1.6 km/h 72 % 0.0 mm
02:05 22.9 °C 17.6 °C 1011.7 hPa WSW 1.6 km/h 3.2 km/h 72 % 0.0 mm
02:15 22.7 °C 17.6 °C 1010.7 hPa SW 1.6 km/h 3.2 km/h 73 % 0.0 mm
02:25 22.6 °C 17.5 °C 1010.7 hPa SW 1.6 km/h 3.2 km/h 73 % 0.0 mm
02:35 22.5 °C 17.4 °C 1011.7 hPa Calm   3.2 km/h 73 % 0.0 mm
02:45 22.4 °C 17.3 °C 1011.7 hPa Calm   3.2 km/h 73 % 0.0 mm
02:55 22.2 °C 17.1 °C 1011.7 hPa SW 3.2 km/h 3.2 km/h 73 % 0.0 mm
03:05 22.1 °C 17.2 °C 1011.7 hPa SW 1.6 km/h 4.8 km/h 74 % 0.0 mm
03:15 21.9 °C 17.3 °C 1011.7 hPa SW 1.6 km/h 4.8 km/h 75 % 0.0 mm
03:25 21.7 °C 17.1 °C 1011.7 hPa WSW 1.6 km/h 3.2 km/h 75 % 0.0 mm
03:35 21.6 °C 17.0 °C 1011.7 hPa WSW 1.6 km/h 3.2 km/h 75 % 0.0 mm
03:45 21.7 °C 17.1 °C 1011.7 hPa SW 1.6 km/h 3.2 km/h 75 % 0.0 mm
03:55 21.9 °C 17.5 °C 1011.7 hPa SW 1.6 km/h 3.2 km/h 76 % 0.0 mm
04:05 22.2 °C 17.3 °C 1011.7 hPa Calm   4.8 km/h 74 % 0.0 mm
04:15 22.3 °C 17.4 °C 1011.7 hPa WNW 1.6 km/h 3.2 km/h 74 % 0.0 mm
04:25 22.4 °C 17.6 °C 1011.7 hPa SW 1.6 km/h 3.2 km/h 74 % 0.0 mm
04:35 22.8 °C 17.7 °C 1011.7 hPa SW 1.6 km/h 3.2 km/h 73 % 0.0 mm
04:45 23.4 °C 18.1 °C 1011.7 hPa SW 1.6 km/h 3.2 km/h 72 % 0.0 mm
04:55 23.8 °C 18.2 °C 1011.7 hPa SW 1.6 km/h 3.2 km/h 71 % 0.0 mm
09:58 26.0 °C 18.4 °C 1011.7 hPa SSE 4.7 km/h 4.7 km/h 63 % 0.0 mm
09:59 26.2 °C 18.6 °C 1011.7 hPa SSE 5.6 km/h 5.6 km/h 63 % 0.0 mm
10:01 26.3 °C 18.7 °C 1011.7 hPa SSE 3.2 km/h 3.2 km/h 63 % 0.0 mm
10:06 26.5 °C 18.6 °C 1011.7 hPa ESE 5.6 km/h 5.6 km/h 62 % 0.0 mm
10:11 27.1 °C 18.9 °C 1011.7 hPa SSE 3.7 km/h 3.7 km/h 61 % 0.0 mm
10:16 27.1 °C 18.7 °C 1011.7 hPa SE 3.7 km/h 3.7 km/h 60 % 0.0 mm
10:21 26.8 °C 18.7 °C 1011.7 hPa ENE 3.7 km/h 3.7 km/h 61 % 0.0 mm
10:26 26.3 °C 18.2 °C 1011.7 hPa East 5.6 km/h 5.6 km/h 61 % 0.0 mm
10:31 26.2 °C 18.1 °C 1011.7 hPa NE 3.7 km/h 3.7 km/h 61 % 0.0 mm
10:36 26.3 °C 18.2 °C 1011.7 hPa NE 3.7 km/h 3.7 km/h 61 % 0.0 mm
10:41 26.6 °C 18.4 °C 1011.7 hPa SW 3.2 km/h 3.2 km/h 61 % 0.0 mm
10:46 26.9 °C 18.7 °C 1011.7 hPa WNW 3.7 km/h 3.7 km/h 61 % 0.0 mm
10:51 27.1 °C 18.7 °C 1011.7 hPa ENE 6.1 km/h 6.1 km/h 60 % 0.0 mm
10:56 27.6 °C 18.9 °C 1011.7 hPa NNE 3.7 km/h 3.7 km/h 59 % 0.0 mm
11:01 27.8 °C 18.5 °C 1011.7 hPa East 3.9 km/h 3.9 km/h 57 % 0.0 mm
11:06 27.9 °C 18.9 °C 1011.7 hPa ESE 1.9 km/h 1.9 km/h 58 % 0.0 mm
11:11 28.1 °C 18.8 °C 1011.7 hPa ENE 7.4 km/h 7.4 km/h 57 % 0.0 mm
11:16 28.0 °C 18.4 °C 1011.7 hPa ESE 3.7 km/h 3.7 km/h 56 % 0.0 mm
11:21 28.5 °C 19.2 °C 1011.7 hPa SW 1.9 km/h 1.9 km/h 57 % 0.0 mm
11:26 29.2 °C 19.2 °C 1011.7 hPa West 5.6 km/h 5.6 km/h 55 % 0.0 mm
11:31 28.7 °C 19.1 °C 1011.7 hPa SW 7.4 km/h 7.4 km/h 56 % 0.0 mm
11:36 29.0 °C 18.4 °C 1011.7 hPa SE 3.7 km/h 3.7 km/h 53 % 0.0 mm
11:41 29.8 °C 18.9 °C 1011.7 hPa SW 5.8 km/h 5.8 km/h 52 % 0.0 mm
11:42 29.9 °C 19.0 °C 1011.7 hPa South 5.6 km/h 5.6 km/h 52 % 0.0 mm
11:47 30.3 °C 19.1 °C 1011.7 hPa SSW 3.7 km/h 3.7 km/h 51 % 0.0 mm
11:52 30.0 °C 18.8 °C 1011.7 hPa South 7.4 km/h 7.4 km/h 51 % 0.0 mm
12:02 30.1 °C 18.6 °C 1012.8 hPa WSW 5.6 km/h 5.6 km/h 50 % 0.0 mm
12:07 30.1 °C 18.6 °C 1012.8 hPa SSW 5.6 km/h 5.6 km/h 50 % 0.0 mm
12:12 30.2 °C 18.3 °C 1011.7 hPa NW 2.6 km/h 2.6 km/h 49 % 0.0 mm
12:17 30.1 °C 18.2 °C 1011.7 hPa West 7.9 km/h 7.9 km/h 49 % 0.0 mm
12:22 30.0 °C 17.8 °C 1011.7 hPa South 3.7 km/h 3.7 km/h 48 % 0.0 mm
12:27 30.3 °C 18.1 °C 1011.7 hPa SW 3.7 km/h 3.7 km/h 48 % 0.0 mm
12:32 30.5 °C 18.2 °C 1011.7 hPa West 3.7 km/h 3.7 km/h 48 % 0.0 mm
12:37 30.9 °C 18.6 °C 1011.7 hPa SW 5.6 km/h 5.6 km/h 48 % 0.0 mm
12:38 31.0 °C 18.4 °C 1011.7 hPa South 2.6 km/h 2.6 km/h 47 % 0.0 mm
12:43 30.9 °C 18.6 °C 1012.8 hPa WSW 5.6 km/h 5.6 km/h 48 % 0.0 mm
12:48 31.1 °C 18.1 °C 1012.8 hPa SSW 3.7 km/h 3.7 km/h 46 % 0.0 mm
12:53 31.0 °C 18.4 °C 1012.8 hPa WSW 7.6 km/h 7.6 km/h 47 % 0.0 mm
12:58 30.9 °C 18.3 °C 1011.7 hPa WSW 7.4 km/h 7.4 km/h 47 % 0.0 mm
13:03 31.2 °C 18.2 °C 1011.7 hPa SW 5.6 km/h 5.6 km/h 46 % 0.0 mm
13:08 31.3 °C 17.9 °C 1011.7 hPa ESE 3.7 km/h 4.2 km/h 45 % 0.0 mm
13:13 32.2 °C 18.8 °C 1011.7 hPa South 5.6 km/h 5.6 km/h 45 % 0.0 mm
13:18 32.0 °C 18.2 °C 1011.7 hPa SSE 7.4 km/h 7.4 km/h 44 % 0.0 mm
13:23 32.2 °C 18.8 °C 1011.7 hPa SW 9.7 km/h 9.7 km/h 45 % 0.0 mm
13:28 32.3 °C 18.5 °C 1010.7 hPa SSW 5.6 km/h 5.6 km/h 44 % 0.0 mm
13:33 32.4 °C 18.6 °C 1010.7 hPa WSW 6.1 km/h 6.1 km/h 44 % 0.0 mm
13:38 32.2 °C 18.4 °C 1010.7 hPa WSW 9.3 km/h 9.3 km/h 44 % 0.0 mm
13:43 31.7 °C 17.6 °C 1010.7 hPa South 9.3 km/h 9.3 km/h 43 % 0.0 mm
13:48 32.1 °C 17.9 °C 1010.7 hPa South 14.8 km/h 14.8 km/h 43 % 0.0 mm
13:53 32.9 °C 18.7 °C 1010.7 hPa South 9.5 km/h 9.5 km/h 43 % 0.0 mm
13:58 33.2 °C 17.8 °C 1011.7 hPa SE 9.3 km/h 9.3 km/h 40 % 0.0 mm
14:03 32.7 °C 16.9 °C 1011.7 hPa SW 9.3 km/h 9.5 km/h 39 % 0.0 mm
14:08 32.8 °C 17.0 °C 1011.7 hPa SW 13.0 km/h 13.0 km/h 39 % 0.0 mm
14:13 32.5 °C 16.3 °C 1011.7 hPa West 18.5 km/h 18.5 km/h 38 % 0.0 mm
14:18 31.9 °C 15.4 °C 1011.7 hPa WSW 22.2 km/h 22.2 km/h 37 % 0.0 mm
14:23 31.6 °C 15.1 °C 1011.7 hPa SSW 14.8 km/h 14.8 km/h 37 % 0.0 mm
14:28 31.6 °C 15.1 °C 1011.7 hPa South 5.6 km/h 5.6 km/h 37 % 0.0 mm
14:33 31.7 °C 15.6 °C 1011.7 hPa SSW 7.4 km/h 7.4 km/h 38 % 0.0 mm
14:38 31.8 °C 15.3 °C 1011.7 hPa SSW 6.4 km/h 6.4 km/h 37 % 0.0 mm
14:43 31.7 °C 15.2 °C 1011.7 hPa SW 11.1 km/h 11.1 km/h 37 % 0.0 mm
14:48 31.6 °C 15.1 °C 1011.7 hPa ESE 10.3 km/h 10.3 km/h 37 % 0.0 mm
14:53 31.6 °C 15.1 °C 1011.7 hPa SW 7.4 km/h 7.4 km/h 37 % 0.0 mm
14:58 31.3 °C 14.9 °C 1012.8 hPa SSW 14.8 km/h 14.8 km/h 37 % 0.0 mm
15:03 31.1 °C 14.3 °C 1012.8 hPa WSW 13.0 km/h 13.0 km/h 36 % 0.0 mm
15:08 31.2 °C 14.3 °C 1012.8 hPa SSW 9.3 km/h 9.3 km/h 36 % 0.0 mm
15:13 31.1 °C 14.3 °C 1012.8 hPa SW 10.3 km/h 10.3 km/h 36 % 0.0 mm
15:18 31.2 °C 14.3 °C 1012.8 hPa SSW 11.1 km/h 11.1 km/h 36 % 0.0 mm
15:23 31.2 °C 14.3 °C 1012.8 hPa SW 13.0 km/h 13.0 km/h 36 % 0.0 mm
15:28 31.3 °C 14.0 °C 1012.8 hPa WSW 11.1 km/h 11.1 km/h 35 % 0.0 mm
15:33 31.1 °C 14.3 °C 1012.8 hPa SSW 20.4 km/h 20.4 km/h 36 % 0.0 mm
15:38 30.9 °C 14.9 °C 1012.8 hPa SSW 9.5 km/h 9.5 km/h 38 % 0.0 mm
15:43 30.7 °C 15.2 °C 1012.8 hPa South 11.1 km/h 11.1 km/h 39 % 0.0 mm
15:48 30.5 °C 15.4 °C 1012.8 hPa SSW 13.0 km/h 13.0 km/h 40 % 0.0 mm
15:53 30.6 °C 15.4 °C 1012.8 hPa SSW 11.1 km/h 11.1 km/h 40 % 0.0 mm
15:58 30.4 °C 15.3 °C 1012.8 hPa WSW 9.3 km/h 9.3 km/h 40 % 0.0 mm
16:03 30.5 °C 15.8 °C 1012.8 hPa WSW 10.0 km/h 10.0 km/h 41 % 0.0 mm
16:08 30.2 °C 15.1 °C 1012.8 hPa SSW 13.0 km/h 13.0 km/h 40 % 0.0 mm
16:13 30.0 °C 14.9 °C 1012.8 hPa WSW 11.1 km/h 11.1 km/h 40 % 0.0 mm
16:18 29.8 °C 15.1 °C 1012.8 hPa WSW 13.0 km/h 13.0 km/h 41 % 0.0 mm
16:23 29.7 °C 15.1 °C 1012.8 hPa SSE 10.3 km/h 10.3 km/h 41 % 0.0 mm
16:28 29.6 °C 15.3 °C 1011.7 hPa SSW 9.3 km/h 9.3 km/h 42 % 0.0 mm
16:33 29.5 °C 15.2 °C 1011.7 hPa SW 7.4 km/h 7.4 km/h 42 % 0.0 mm
16:34 29.5 °C 15.2 °C 1011.7 hPa WSW 10.3 km/h 10.3 km/h 42 % 0.0 mm
16:39 29.3 °C 15.1 °C 1011.7 hPa WSW 16.7 km/h 16.7 km/h 42 % 0.0 mm
16:44 29.2 °C 14.9 °C 1011.7 hPa WSW 7.4 km/h 7.4 km/h 42 % 0.0 mm
16:49 29.2 °C 14.9 °C 1011.7 hPa SW 9.5 km/h 9.5 km/h 42 % 0.0 mm
16:54 29.0 °C 14.8 °C 1011.7 hPa WSW 16.7 km/h 16.7 km/h 42 % 0.0 mm
16:59 28.9 °C 15.1 °C 1011.7 hPa WSW 9.3 km/h 9.3 km/h 43 % 0.0 mm
17:04 28.9 °C 15.1 °C 1011.7 hPa South 9.3 km/h 9.3 km/h 43 % 0.0 mm
17:09 28.9 °C 15.4 °C 1011.7 hPa SSW 9.3 km/h 9.5 km/h 44 % 0.0 mm
17:14 28.8 °C 15.3 °C 1011.7 hPa West 9.3 km/h 9.3 km/h 44 % 0.0 mm
17:19 28.7 °C 15.2 °C 1011.7 hPa SSW 11.1 km/h 11.1 km/h 44 % 0.0 mm
17:24 28.5 °C 15.4 °C 1012.8 hPa WSW 16.7 km/h 16.7 km/h 45 % 0.0 mm
17:29 28.1 °C 15.4 °C 1012.8 hPa SW 20.4 km/h 20.4 km/h 46 % 0.0 mm
17:34 27.6 °C 15.9 °C 1012.8 hPa SW 17.5 km/h 17.5 km/h 49 % 0.0 mm
17:39 27.2 °C 16.2 °C 1013.8 hPa SW 16.7 km/h 16.7 km/h 51 % 0.0 mm
17:44 26.4 °C 16.6 °C 1013.8 hPa South 11.1 km/h 11.1 km/h 55 % 0.0 mm
17:49 25.8 °C 16.9 °C 1013.8 hPa SW 16.7 km/h 16.7 km/h 58 % 0.0 mm
17:54 25.5 °C 17.2 °C 1013.8 hPa SW 12.6 km/h 12.6 km/h 60 % 0.0 mm
17:59 25.4 °C 17.6 °C 1013.8 hPa WSW 11.1 km/h 11.1 km/h 62 % 0.0 mm
18:04 25.4 °C 17.6 °C 1013.8 hPa SW 14.8 km/h 14.8 km/h 62 % 0.0 mm
18:09 25.2 °C 17.9 °C 1013.8 hPa South 13.0 km/h 13.0 km/h 64 % 0.0 mm
18:14 25.0 °C 17.4 °C 1013.8 hPa SW 9.0 km/h 9.0 km/h 63 % 0.0 mm
18:19 25.0 °C 17.7 °C 1013.8 hPa SW 9.3 km/h 9.3 km/h 64 % 0.0 mm
18:24 25.1 °C 17.6 °C 1013.8 hPa West 9.3 km/h 9.3 km/h 63 % 0.0 mm
18:29 25.1 °C 17.6 °C 1013.8 hPa SW 5.6 km/h 5.6 km/h 63 % 0.0 mm
18:34 25.2 °C 17.7 °C 1013.8 hPa SW 7.4 km/h 7.4 km/h 63 % 0.0 mm
18:39 25.4 °C 17.6 °C 1012.8 hPa West 7.4 km/h 7.4 km/h 62 % 0.0 mm
18:44 25.4 °C 17.3 °C 1012.8 hPa WSW 7.4 km/h 7.4 km/h 61 % 0.0 mm
18:49 25.5 °C 17.2 °C 1012.8 hPa West 5.6 km/h 5.6 km/h 60 % 0.0 mm
18:54 25.6 °C 17.3 °C 1012.8 hPa WSW 3.2 km/h 3.2 km/h 60 % 0.0 mm
18:59 25.6 °C 17.3 °C 1012.8 hPa SW 3.7 km/h 3.7 km/h 60 % 0.0 mm
19:04 25.6 °C 16.7 °C 1012.8 hPa WNW 5.6 km/h 5.6 km/h 58 % 0.0 mm
19:09 25.7 °C 16.6 °C 1012.8 hPa West 3.9 km/h 3.9 km/h 57 % 0.0 mm
19:14 25.8 °C 16.3 °C 1012.8 hPa West 3.7 km/h 3.7 km/h 56 % 0.0 mm
19:15 25.8 °C 16.3 °C 1012.8 hPa Calm   3.2 km/h 56 % 0.0 mm
19:20 26.0 °C 16.3 °C 1012.8 hPa West 1.9 km/h   55 % 0.0 mm
19:25 26.0 °C 16.3 °C 1011.7 hPa SW 5.8 km/h 5.8 km/h 55 % 0.0 mm
19:30 25.9 °C 16.2 °C 1011.7 hPa Calm   4.8 km/h 55 % 0.0 mm
19:35 25.9 °C 15.9 °C 1011.7 hPa SW 1.6 km/h 3.2 km/h 54 % 0.0 mm
19:40 25.9 °C 15.9 °C 1011.7 hPa SW 3.2 km/h 4.8 km/h 54 % 0.0 mm
19:45 25.8 °C 15.8 °C 1011.7 hPa WSW 3.7 km/h 3.7 km/h 54 % 0.0 mm
19:50 25.8 °C 15.8 °C 1011.7 hPa Calm     54 % 0.0 mm
19:55 25.7 °C 15.7 °C 1012.8 hPa Calm     54 % 0.0 mm
20:00 25.7 °C 15.7 °C 1012.8 hPa Calm     54 % 0.0 mm
20:05 25.6 °C 15.6 °C 1012.8 hPa NNE 2.3 km/h   54 % 0.0 mm
20:10 25.6 °C 15.3 °C 1011.7 hPa South 2.6 km/h   53 % 0.0 mm
20:15 25.6 °C 15.3 °C 1011.7 hPa South 1.9 km/h 2.3 km/h 53 % 0.0 mm
20:20 25.5 °C 15.5 °C 1011.7 hPa Calm     54 % 0.0 mm
20:25 25.4 °C 15.4 °C 1012.8 hPa SW 3.7 km/h 3.7 km/h 54 % 0.0 mm
20:30 25.3 °C 15.3 °C 1012.8 hPa SW 2.3 km/h 2.3 km/h 54 % 0.0 mm
20:35 25.1 °C 15.1 °C 1012.8 hPa WSW 3.7 km/h 3.7 km/h 54 % 0.0 mm
20:40 25.0 °C 15.1 °C 1012.8 hPa WSW 3.2 km/h 3.2 km/h 54 % 0.0 mm
20:45 23.0 °C 12.9 °C 1013.8 hPa WSW 3.2 km/h 4.8 km/h 53 % 0.0 mm
20:50 24.9 °C 15.2 °C 1012.8 hPa WSW 3.7 km/h 3.7 km/h 55 % 0.0 mm
20:55 24.9 °C 15.2 °C 1013.8 hPa SW 3.7 km/h 3.7 km/h 55 % 0.0 mm
21:00 24.8 °C 15.2 °C 1013.8 hPa SW 3.9 km/h 3.9 km/h 55 % 0.0 mm
21:05 22.6 °C 12.8 °C 1012.8 hPa WSW 1.6 km/h 3.2 km/h 54 % 0.0 mm
21:10 24.6 °C 15.2 °C 1013.8 hPa WSW 4.2 km/h 4.2 km/h 56 % 0.0 mm
21:15 24.6 °C 15.2 °C 1013.8 hPa SW 3.9 km/h 3.9 km/h 56 % 0.0 mm
21:20 24.6 °C 15.2 °C 1013.8 hPa SW 3.9 km/h 3.9 km/h 56 % 0.0 mm
21:25 24.5 °C 15.2 °C 1013.8 hPa SW 5.6 km/h 5.6 km/h 56 % 0.0 mm
21:30 24.5 °C 15.2 °C 1013.8 hPa West 3.7 km/h 3.7 km/h 56 % 0.0 mm
21:35 24.5 °C 15.2 °C 1013.8 hPa WSW 3.7 km/h 3.7 km/h 56 % 0.0 mm
21:40 24.5 °C 14.9 °C 1013.8 hPa WSW 4.2 km/h 4.2 km/h 55 % 0.0 mm
21:45 24.5 °C 14.9 °C 1013.8 hPa Calm     55 % 0.0 mm
21:55 24.6 °C 14.7 °C 1012.8 hPa SW 3.7 km/h 3.7 km/h 54 % 0.0 mm
22:00 24.6 °C 14.7 °C 1012.8 hPa WSW 4.2 km/h 4.2 km/h 54 % 0.0 mm
22:05 24.7 °C 14.5 °C 1012.8 hPa West 5.6 km/h 5.6 km/h 53 % 0.0 mm
22:10 24.8 °C 14.6 °C 1013.8 hPa West 4.7 km/h 4.7 km/h 53 % 0.0 mm
22:15 24.7 °C 14.2 °C 1013.8 hPa SW 5.0 km/h 5.0 km/h 52 % 0.0 mm
22:20 24.6 °C 14.1 °C 1013.8 hPa SW 5.6 km/h 5.6 km/h 52 % 0.0 mm
22:25 24.5 °C 14.0 °C 1013.8 hPa South 4.2 km/h 4.2 km/h 52 % 0.0 mm
22:30 24.3 °C 14.1 °C 1013.8 hPa West 7.4 km/h 7.4 km/h 53 % 0.0 mm
22:35 24.2 °C 14.0 °C 1013.8 hPa WSW 5.6 km/h 5.6 km/h 53 % 0.0 mm
22:40 24.3 °C 14.1 °C 1013.8 hPa SW 3.9 km/h 3.9 km/h 53 % 0.0 mm
22:45 24.2 °C 14.0 °C 1013.8 hPa SW 3.7 km/h 3.7 km/h 53 % 0.0 mm
22:50 24.1 °C 13.9 °C 1013.8 hPa SW 3.9 km/h 3.9 km/h 53 % 0.0 mm
22:55 24.0 °C 13.8 °C 1013.8 hPa SW 3.7 km/h 3.7 km/h 53 % 0.0 mm
23:00 23.9 °C 13.7 °C 1013.8 hPa WSW 2.3 km/h 2.3 km/h 53 % 0.0 mm
23:01 23.9 °C 13.7 °C 1013.8 hPa SW 3.7 km/h 3.7 km/h 53 % 0.0 mm
23:05 21.9 °C 12.2 °C 1013.8 hPa SW 4.8 km/h 6.4 km/h 54 % 0.0 mm
23:06 24.1 °C 13.9 °C 1013.8 hPa SW 5.6 km/h 5.6 km/h 53 % 0.0 mm
23:11 23.8 °C 13.7 °C 1013.8 hPa SW 3.7 km/h 3.7 km/h 53 % 0.0 mm
23:15 22.2 °C 12.2 °C 1014.8 hPa SW 4.8 km/h 8.0 km/h 53 % 0.0 mm
23:16 23.6 °C 13.4 °C 1013.8 hPa WSW 3.9 km/h 3.9 km/h 53 % 0.0 mm
23:21 23.5 °C 13.4 °C 1013.8 hPa WSW 1.9 km/h 1.9 km/h 53 % 0.0 mm
23:25 23.0 °C 12.3 °C 1014.8 hPa SW 9.7 km/h 16.1 km/h 51 % 0.0 mm
23:26 23.5 °C 13.4 °C 1013.8 hPa WSW 1.9 km/h   53 % 0.0 mm
23:31 23.5 °C 13.1 °C 1013.8 hPa Calm     52 % 0.0 mm
23:35 22.7 °C 12.6 °C 1015.8 hPa SW 12.9 km/h 27.4 km/h 53 % 0.0 mm
23:36 23.6 °C 13.2 °C 1013.8 hPa WSW 3.7 km/h 3.7 km/h 52 % 0.0 mm
23:41 23.5 °C 13.4 °C 1014.8 hPa SW 5.6 km/h 5.6 km/h 53 % 0.0 mm
23:45 22.1 °C 12.9 °C 1015.8 hPa SW 11.3 km/h 16.1 km/h 56 % 0.0 mm
23:46 23.5 °C 13.4 °C 1014.8 hPa SW 3.9 km/h 3.9 km/h 53 % 0.0 mm
23:51 23.4 °C 13.3 °C 1014.8 hPa SW 3.7 km/h 3.7 km/h 53 % 0.0 mm
23:55 21.1 °C 13.8 °C 1015.8 hPa WSW 4.8 km/h 12.9 km/h 63 % 0.0 mm
23:56 23.3 °C 13.2 °C 1013.8 hPa WSW 3.7 km/h 3.7 km/h 53 % 0.0 mm
Meteo Sesrovires
Elogis d' Weather Underground - 3.5 mb

Guio original per  Jim McMurry - jmcmurry@mwt.net Adaptat per a la plantilla per  Wim van der Kuil - Leuven-Template.eu

Trobareu la nostra informacio del temps tambe a:

Weather Underground

AWEKAS